sensor_id;sensor_type;location;lat;lon;timestamp;P1;durP1;ratioP1;P2;durP2;ratioP2
3068;SDS011;1545;51.728;8.796;2023-08-08T00:00:13;23.23;;;8.33;;
3068;SDS011;1545;51.728;8.796;2023-08-08T00:02:39;17.10;;;8.50;;
3068;SDS011;1545;51.728;8.796;2023-08-08T00:05:05;21.83;;;8.70;;
3068;SDS011;1545;51.728;8.796;2023-08-08T00:07:31;21.30;;;8.80;;
3068;SDS011;1545;51.728;8.796;2023-08-08T00:09:57;14.60;;;8.33;;
3068;SDS011;1545;51.728;8.796;2023-08-08T00:12:22;16.30;;;8.30;;
3068;SDS011;1545;51.728;8.796;2023-08-08T00:14:48;14.53;;;8.87;;
3068;SDS011;1545;51.728;8.796;2023-08-08T00:17:14;20.23;;;9.10;;
3068;SDS011;1545;51.728;8.796;2023-08-08T00:19:40;15.60;;;8.53;;
3068;SDS011;1545;51.728;8.796;2023-08-08T00:22:06;16.07;;;8.07;;
3068;SDS011;1545;51.728;8.796;2023-08-08T00:24:31;25.47;;;8.57;;
3068;SDS011;1545;51.728;8.796;2023-08-08T00:26:57;13.80;;;7.60;;
3068;SDS011;1545;51.728;8.796;2023-08-08T00:29:22;18.23;;;8.23;;
3068;SDS011;1545;51.728;8.796;2023-08-08T00:31:48;13.33;;;7.10;;
3068;SDS011;1545;51.728;8.796;2023-08-08T00:34:14;20.03;;;7.57;;
3068;SDS011;1545;51.728;8.796;2023-08-08T00:36:39;14.17;;;7.07;;
3068;SDS011;1545;51.728;8.796;2023-08-08T00:39:05;18.90;;;6.77;;
3068;SDS011;1545;51.728;8.796;2023-08-08T00:41:30;18.73;;;7.00;;
3068;SDS011;1545;51.728;8.796;2023-08-08T00:43:56;14.47;;;6.60;;
3068;SDS011;1545;51.728;8.796;2023-08-08T00:46:21;11.97;;;6.53;;
3068;SDS011;1545;51.728;8.796;2023-08-08T00:48:49;11.93;;;6.37;;
3068;SDS011;1545;51.728;8.796;2023-08-08T00:51:16;13.73;;;6.60;;
3068;SDS011;1545;51.728;8.796;2023-08-08T00:53:42;14.20;;;7.47;;
3068;SDS011;1545;51.728;8.796;2023-08-08T00:56:08;21.73;;;6.47;;
3068;SDS011;1545;51.728;8.796;2023-08-08T00:58:35;13.27;;;6.20;;
3068;SDS011;1545;51.728;8.796;2023-08-08T01:01:01;12.07;;;6.40;;
3068;SDS011;1545;51.728;8.796;2023-08-08T01:03:26;14.63;;;6.30;;
3068;SDS011;1545;51.728;8.796;2023-08-08T01:05:59;10.87;;;5.90;;
3068;SDS011;1545;51.728;8.796;2023-08-08T01:08:49;14.53;;;6.20;;
3068;SDS011;1545;51.728;8.796;2023-08-08T01:11:20;11.77;;;5.50;;
3068;SDS011;1545;51.728;8.796;2023-08-08T01:13:47;9.57;;;6.10;;
3068;SDS011;1545;51.728;8.796;2023-08-08T01:16:12;10.10;;;5.40;;
3068;SDS011;1545;51.728;8.796;2023-08-08T01:18:39;13.07;;;6.20;;
3068;SDS011;1545;51.728;8.796;2023-08-08T01:21:06;12.23;;;5.60;;
3068;SDS011;1545;51.728;8.796;2023-08-08T01:23:41;15.53;;;5.73;;
3068;SDS011;1545;51.728;8.796;2023-08-08T01:26:10;11.93;;;5.27;;
3068;SDS011;1545;51.728;8.796;2023-08-08T01:28:37;10.43;;;5.07;;
3068;SDS011;1545;51.728;8.796;2023-08-08T01:31:02;10.97;;;5.00;;
3068;SDS011;1545;51.728;8.796;2023-08-08T01:33:28;12.50;;;5.20;;
3068;SDS011;1545;51.728;8.796;2023-08-08T01:35:54;12.80;;;5.67;;
3068;SDS011;1545;51.728;8.796;2023-08-08T01:38:26;9.90;;;5.30;;
3068;SDS011;1545;51.728;8.796;2023-08-08T01:40:56;10.00;;;5.40;;
3068;SDS011;1545;51.728;8.796;2023-08-08T01:43:22;7.73;;;5.07;;
3068;SDS011;1545;51.728;8.796;2023-08-08T01:45:48;8.30;;;4.73;;
3068;SDS011;1545;51.728;8.796;2023-08-08T01:48:15;11.87;;;5.47;;
3068;SDS011;1545;51.728;8.796;2023-08-08T01:50:41;9.23;;;5.20;;
3068;SDS011;1545;51.728;8.796;2023-08-08T01:53:06;9.93;;;4.93;;
3068;SDS011;1545;51.728;8.796;2023-08-08T01:55:32;7.87;;;4.80;;
3068;SDS011;1545;51.728;8.796;2023-08-08T01:57:58;9.90;;;5.37;;
3068;SDS011;1545;51.728;8.796;2023-08-08T02:00:23;11.13;;;5.17;;
3068;SDS011;1545;51.728;8.796;2023-08-08T02:02:49;12.23;;;5.23;;
3068;SDS011;1545;51.728;8.796;2023-08-08T02:05:14;9.63;;;5.17;;
3068;SDS011;1545;51.728;8.796;2023-08-08T02:07:40;15.07;;;5.20;;
3068;SDS011;1545;51.728;8.796;2023-08-08T02:10:06;10.20;;;5.07;;
3068;SDS011;1545;51.728;8.796;2023-08-08T02:15:53;11.53;;;5.83;;
3068;SDS011;1545;51.728;8.796;2023-08-08T02:18:19;11.30;;;5.47;;
3068;SDS011;1545;51.728;8.796;2023-08-08T02:20:44;9.77;;;5.47;;
3068;SDS011;1545;51.728;8.796;2023-08-08T02:23:10;9.53;;;5.83;;
3068;SDS011;1545;51.728;8.796;2023-08-08T02:25:35;13.00;;;6.50;;
3068;SDS011;1545;51.728;8.796;2023-08-08T02:28:01;11.47;;;6.20;;
3068;SDS011;1545;51.728;8.796;2023-08-08T02:30:26;7.80;;;6.30;;
3068;SDS011;1545;51.728;8.796;2023-08-08T02:32:52;14.67;;;6.70;;
3068;SDS011;1545;51.728;8.796;2023-08-08T02:35:17;16.73;;;6.70;;
3068;SDS011;1545;51.728;8.796;2023-08-08T02:37:43;14.00;;;6.97;;
3068;SDS011;1545;51.728;8.796;2023-08-08T02:40:09;9.37;;;6.77;;
3068;SDS011;1545;51.728;8.796;2023-08-08T02:42:35;11.60;;;6.47;;
3068;SDS011;1545;51.728;8.796;2023-08-08T02:45:00;11.20;;;6.53;;
3068;SDS011;1545;51.728;8.796;2023-08-08T02:47:26;11.33;;;6.57;;
3068;SDS011;1545;51.728;8.796;2023-08-08T02:49:51;12.40;;;6.63;;
3068;SDS011;1545;51.728;8.796;2023-08-08T02:52:17;12.37;;;6.60;;
3068;SDS011;1545;51.728;8.796;2023-08-08T02:54:42;8.67;;;5.80;;
3068;SDS011;1545;51.728;8.796;2023-08-08T02:57:08;8.00;;;5.63;;
3068;SDS011;1545;51.728;8.796;2023-08-08T02:59:35;9.30;;;6.00;;
3068;SDS011;1545;51.728;8.796;2023-08-08T03:02:01;10.30;;;6.13;;
3068;SDS011;1545;51.728;8.796;2023-08-08T03:04:28;8.10;;;5.50;;
3068;SDS011;1545;51.728;8.796;2023-08-08T03:06:54;10.50;;;6.40;;
3068;SDS011;1545;51.728;8.796;2023-08-08T03:09:19;10.50;;;6.77;;
3068;SDS011;1545;51.728;8.796;2023-08-08T03:11:45;10.97;;;5.90;;
3068;SDS011;1545;51.728;8.796;2023-08-08T03:14:10;8.90;;;6.10;;
3068;SDS011;1545;51.728;8.796;2023-08-08T03:16:36;9.83;;;6.30;;
3068;SDS011;1545;51.728;8.796;2023-08-08T03:19:02;12.67;;;7.30;;
3068;SDS011;1545;51.728;8.796;2023-08-08T03:21:27;11.93;;;7.23;;
3068;SDS011;1545;51.728;8.796;2023-08-08T03:23:53;10.63;;;7.80;;
3068;SDS011;1545;51.728;8.796;2023-08-08T03:26:19;10.30;;;7.83;;
3068;SDS011;1545;51.728;8.796;2023-08-08T03:28:44;11.47;;;7.50;;
3068;SDS011;1545;51.728;8.796;2023-08-08T03:31:10;13.27;;;8.60;;
3068;SDS011;1545;51.728;8.796;2023-08-08T03:33:35;13.23;;;8.70;;
3068;SDS011;1545;51.728;8.796;2023-08-08T03:36:01;13.13;;;8.73;;
3068;SDS011;1545;51.728;8.796;2023-08-08T03:38:26;15.30;;;9.03;;
3068;SDS011;1545;51.728;8.796;2023-08-08T03:40:52;13.23;;;8.17;;
3068;SDS011;1545;51.728;8.796;2023-08-08T03:43:17;14.07;;;8.13;;
3068;SDS011;1545;51.728;8.796;2023-08-08T03:45:44;13.20;;;8.30;;
3068;SDS011;1545;51.728;8.796;2023-08-08T03:48:09;11.80;;;8.43;;
3068;SDS011;1545;51.728;8.796;2023-08-08T03:50:35;14.63;;;8.70;;
3068;SDS011;1545;51.728;8.796;2023-08-08T03:53:01;14.70;;;8.13;;
3068;SDS011;1545;51.728;8.796;2023-08-08T03:55:26;10.93;;;8.07;;
3068;SDS011;1545;51.728;8.796;2023-08-08T03:57:52;12.27;;;8.50;;
3068;SDS011;1545;51.728;8.796;2023-08-08T04:00:17;15.13;;;8.67;;
3068;SDS011;1545;51.728;8.796;2023-08-08T04:02:43;11.90;;;8.10;;
3068;SDS011;1545;51.728;8.796;2023-08-08T04:05:08;11.07;;;7.90;;
3068;SDS011;1545;51.728;8.796;2023-08-08T04:07:34;15.83;;;8.80;;
3068;SDS011;1545;51.728;8.796;2023-08-08T04:10:00;10.93;;;7.57;;
3068;SDS011;1545;51.728;8.796;2023-08-08T04:12:25;13.57;;;7.67;;
3068;SDS011;1545;51.728;8.796;2023-08-08T04:14:51;13.63;;;7.63;;
3068;SDS011;1545;51.728;8.796;2023-08-08T04:17:17;11.60;;;7.27;;
3068;SDS011;1545;51.728;8.796;2023-08-08T04:19:42;13.20;;;7.33;;
3068;SDS011;1545;51.728;8.796;2023-08-08T04:22:08;20.27;;;7.47;;
3068;SDS011;1545;51.728;8.796;2023-08-08T04:24:33;11.63;;;6.87;;
3068;SDS011;1545;51.728;8.796;2023-08-08T04:26:59;13.63;;;7.40;;
3068;SDS011;1545;51.728;8.796;2023-08-08T04:29:24;11.87;;;6.67;;
3068;SDS011;1545;51.728;8.796;2023-08-08T04:31:50;20.63;;;6.20;;
3068;SDS011;1545;51.728;8.796;2023-08-08T04:34:16;11.27;;;6.77;;
3068;SDS011;1545;51.728;8.796;2023-08-08T04:36:42;9.33;;;6.23;;
3068;SDS011;1545;51.728;8.796;2023-08-08T04:39:07;15.77;;;6.03;;
3068;SDS011;1545;51.728;8.796;2023-08-08T04:41:33;11.20;;;6.37;;
3068;SDS011;1545;51.728;8.796;2023-08-08T04:43:58;14.23;;;6.50;;
3068;SDS011;1545;51.728;8.796;2023-08-08T04:46:24;13.13;;;6.37;;
3068;SDS011;1545;51.728;8.796;2023-08-08T04:48:49;13.50;;;6.80;;
3068;SDS011;1545;51.728;8.796;2023-08-08T04:51:15;9.57;;;6.03;;
3068;SDS011;1545;51.728;8.796;2023-08-08T04:53:41;9.47;;;6.27;;
3068;SDS011;1545;51.728;8.796;2023-08-08T04:56:06;15.30;;;6.50;;
3068;SDS011;1545;51.728;8.796;2023-08-08T04:58:31;14.47;;;6.27;;
3068;SDS011;1545;51.728;8.796;2023-08-08T05:00:57;16.60;;;6.53;;
3068;SDS011;1545;51.728;8.796;2023-08-08T05:03:23;15.47;;;6.10;;
3068;SDS011;1545;51.728;8.796;2023-08-08T05:05:49;11.77;;;6.50;;
3068;SDS011;1545;51.728;8.796;2023-08-08T05:08:14;12.57;;;6.33;;
3068;SDS011;1545;51.728;8.796;2023-08-08T05:10:40;13.67;;;6.70;;
3068;SDS011;1545;51.728;8.796;2023-08-08T05:13:06;9.70;;;6.03;;
3068;SDS011;1545;51.728;8.796;2023-08-08T05:15:31;12.83;;;6.63;;
3068;SDS011;1545;51.728;8.796;2023-08-08T05:17:57;15.67;;;6.57;;
3068;SDS011;1545;51.728;8.796;2023-08-08T05:20:22;13.60;;;6.57;;
3068;SDS011;1545;51.728;8.796;2023-08-08T05:22:48;14.67;;;6.77;;
3068;SDS011;1545;51.728;8.796;2023-08-08T05:25:14;11.20;;;6.60;;
3068;SDS011;1545;51.728;8.796;2023-08-08T05:27:39;14.60;;;7.37;;
3068;SDS011;1545;51.728;8.796;2023-08-08T05:30:05;11.93;;;6.40;;
3068;SDS011;1545;51.728;8.796;2023-08-08T05:32:31;14.30;;;6.50;;
3068;SDS011;1545;51.728;8.796;2023-08-08T05:34:57;10.63;;;6.50;;
3068;SDS011;1545;51.728;8.796;2023-08-08T05:37:23;12.80;;;6.63;;
3068;SDS011;1545;51.728;8.796;2023-08-08T05:39:49;13.30;;;6.77;;
3068;SDS011;1545;51.728;8.796;2023-08-08T05:42:14;15.20;;;7.07;;
3068;SDS011;1545;51.728;8.796;2023-08-08T05:44:40;13.27;;;6.50;;
3068;SDS011;1545;51.728;8.796;2023-08-08T05:47:09;16.20;;;6.67;;
3068;SDS011;1545;51.728;8.796;2023-08-08T05:49:35;11.03;;;6.33;;
3068;SDS011;1545;51.728;8.796;2023-08-08T05:52:00;18.83;;;6.87;;
3068;SDS011;1545;51.728;8.796;2023-08-08T05:54:26;15.47;;;7.60;;
3068;SDS011;1545;51.728;8.796;2023-08-08T05:56:53;13.57;;;6.30;;
3068;SDS011;1545;51.728;8.796;2023-08-08T05:59:18;14.23;;;7.50;;
3068;SDS011;1545;51.728;8.796;2023-08-08T06:01:44;10.93;;;6.53;;
3068;SDS011;1545;51.728;8.796;2023-08-08T06:04:11;12.37;;;6.70;;
3068;SDS011;1545;51.728;8.796;2023-08-08T06:06:36;13.23;;;6.73;;
3068;SDS011;1545;51.728;8.796;2023-08-08T06:09:02;14.30;;;6.83;;
3068;SDS011;1545;51.728;8.796;2023-08-08T06:11:28;11.90;;;6.60;;
3068;SDS011;1545;51.728;8.796;2023-08-08T06:13:54;15.93;;;6.77;;
3068;SDS011;1545;51.728;8.796;2023-08-08T06:16:20;12.87;;;6.83;;
3068;SDS011;1545;51.728;8.796;2023-08-08T06:18:45;14.20;;;7.13;;
3068;SDS011;1545;51.728;8.796;2023-08-08T06:21:11;9.77;;;6.63;;
3068;SDS011;1545;51.728;8.796;2023-08-08T06:23:36;13.80;;;7.47;;
3068;SDS011;1545;51.728;8.796;2023-08-08T06:26:02;15.33;;;7.33;;
3068;SDS011;1545;51.728;8.796;2023-08-08T06:28:27;15.87;;;8.47;;
3068;SDS011;1545;51.728;8.796;2023-08-08T06:30:55;13.53;;;8.73;;
3068;SDS011;1545;51.728;8.796;2023-08-08T06:33:22;18.00;;;9.80;;
3068;SDS011;1545;51.728;8.796;2023-08-08T06:35:48;19.33;;;9.63;;
3068;SDS011;1545;51.728;8.796;2023-08-08T06:38:14;14.17;;;7.77;;
3068;SDS011;1545;51.728;8.796;2023-08-08T06:40:39;21.00;;;11.33;;
3068;SDS011;1545;51.728;8.796;2023-08-08T06:43:05;22.70;;;11.77;;
3068;SDS011;1545;51.728;8.796;2023-08-08T06:45:30;19.90;;;11.47;;
3068;SDS011;1545;51.728;8.796;2023-08-08T06:47:56;17.50;;;11.60;;
3068;SDS011;1545;51.728;8.796;2023-08-08T06:50:22;23.10;;;12.13;;
3068;SDS011;1545;51.728;8.796;2023-08-08T06:52:50;19.20;;;10.63;;
3068;SDS011;1545;51.728;8.796;2023-08-08T06:55:16;19.23;;;11.43;;
3068;SDS011;1545;51.728;8.796;2023-08-08T06:57:43;19.87;;;11.50;;
3068;SDS011;1545;51.728;8.796;2023-08-08T07:00:09;21.23;;;11.90;;
3068;SDS011;1545;51.728;8.796;2023-08-08T07:02:37;21.07;;;11.73;;
3068;SDS011;1545;51.728;8.796;2023-08-08T07:05:03;23.57;;;12.50;;
3068;SDS011;1545;51.728;8.796;2023-08-08T07:07:28;27.50;;;12.43;;
3068;SDS011;1545;51.728;8.796;2023-08-08T07:09:55;21.30;;;12.40;;
3068;SDS011;1545;51.728;8.796;2023-08-08T07:12:21;20.80;;;11.87;;
3068;SDS011;1545;51.728;8.796;2023-08-08T07:14:47;19.60;;;12.03;;
3068;SDS011;1545;51.728;8.796;2023-08-08T07:17:12;23.37;;;12.37;;
3068;SDS011;1545;51.728;8.796;2023-08-08T07:19:38;25.13;;;12.03;;
3068;SDS011;1545;51.728;8.796;2023-08-08T07:22:04;20.17;;;11.73;;
3068;SDS011;1545;51.728;8.796;2023-08-08T07:24:30;21.70;;;12.80;;
3068;SDS011;1545;51.728;8.796;2023-08-08T07:26:58;31.43;;;12.83;;
3068;SDS011;1545;51.728;8.796;2023-08-08T07:29:24;24.10;;;13.57;;
3068;SDS011;1545;51.728;8.796;2023-08-08T07:31:53;23.97;;;13.53;;
3068;SDS011;1545;51.728;8.796;2023-08-08T07:34:19;25.10;;;12.30;;
3068;SDS011;1545;51.728;8.796;2023-08-08T07:36:46;25.97;;;13.97;;
3068;SDS011;1545;51.728;8.796;2023-08-08T07:39:12;23.93;;;13.50;;
3068;SDS011;1545;51.728;8.796;2023-08-08T07:41:37;25.33;;;13.00;;
3068;SDS011;1545;51.728;8.796;2023-08-08T07:44:04;22.07;;;12.47;;
3068;SDS011;1545;51.728;8.796;2023-08-08T07:46:30;26.53;;;13.47;;
3068;SDS011;1545;51.728;8.796;2023-08-08T07:48:56;25.80;;;12.33;;
3068;SDS011;1545;51.728;8.796;2023-08-08T07:51:24;17.83;;;11.80;;
3068;SDS011;1545;51.728;8.796;2023-08-08T07:53:50;23.60;;;12.07;;
3068;SDS011;1545;51.728;8.796;2023-08-08T07:56:15;22.77;;;12.90;;
3068;SDS011;1545;51.728;8.796;2023-08-08T07:58:41;27.57;;;15.03;;
3068;SDS011;1545;51.728;8.796;2023-08-08T08:01:06;23.40;;;13.13;;
3068;SDS011;1545;51.728;8.796;2023-08-08T08:03:32;23.67;;;13.13;;
3068;SDS011;1545;51.728;8.796;2023-08-08T08:05:57;31.07;;;14.97;;
3068;SDS011;1545;51.728;8.796;2023-08-08T08:08:23;27.67;;;14.20;;
3068;SDS011;1545;51.728;8.796;2023-08-08T08:10:49;27.93;;;13.47;;
3068;SDS011;1545;51.728;8.796;2023-08-08T08:13:16;29.33;;;13.20;;
3068;SDS011;1545;51.728;8.796;2023-08-08T08:15:41;24.90;;;12.97;;
3068;SDS011;1545;51.728;8.796;2023-08-08T08:18:08;26.03;;;13.47;;
3068;SDS011;1545;51.728;8.796;2023-08-08T08:20:33;27.27;;;13.27;;
3068;SDS011;1545;51.728;8.796;2023-08-08T08:22:59;26.80;;;12.83;;
3068;SDS011;1545;51.728;8.796;2023-08-08T08:25:25;24.07;;;12.93;;
3068;SDS011;1545;51.728;8.796;2023-08-08T08:27:50;25.47;;;12.90;;
3068;SDS011;1545;51.728;8.796;2023-08-08T08:30:16;23.70;;;11.83;;
3068;SDS011;1545;51.728;8.796;2023-08-08T08:32:42;23.70;;;12.20;;
3068;SDS011;1545;51.728;8.796;2023-08-08T08:35:08;22.27;;;12.70;;
3068;SDS011;1545;51.728;8.796;2023-08-08T08:37:34;25.13;;;11.47;;
3068;SDS011;1545;51.728;8.796;2023-08-08T08:40:00;23.37;;;11.97;;
3068;SDS011;1545;51.728;8.796;2023-08-08T08:42:28;21.37;;;11.00;;
3068;SDS011;1545;51.728;8.796;2023-08-08T08:44:57;23.40;;;11.43;;
3068;SDS011;1545;51.728;8.796;2023-08-08T08:47:23;30.00;;;12.00;;
3068;SDS011;1545;51.728;8.796;2023-08-08T08:49:50;22.57;;;10.70;;
3068;SDS011;1545;51.728;8.796;2023-08-08T08:52:17;23.13;;;11.00;;
3068;SDS011;1545;51.728;8.796;2023-08-08T08:54:42;19.87;;;10.20;;
3068;SDS011;1545;51.728;8.796;2023-08-08T08:57:08;27.00;;;10.90;;
3068;SDS011;1545;51.728;8.796;2023-08-08T08:59:34;29.47;;;10.70;;
3068;SDS011;1545;51.728;8.796;2023-08-08T09:02:00;18.20;;;10.03;;
3068;SDS011;1545;51.728;8.796;2023-08-08T09:04:27;18.93;;;10.10;;
3068;SDS011;1545;51.728;8.796;2023-08-08T09:06:53;22.03;;;9.70;;
3068;SDS011;1545;51.728;8.796;2023-08-08T09:09:19;21.43;;;10.07;;
3068;SDS011;1545;51.728;8.796;2023-08-08T09:11:50;18.43;;;9.03;;
3068;SDS011;1545;51.728;8.796;2023-08-08T09:14:22;19.10;;;9.03;;
3068;SDS011;1545;51.728;8.796;2023-08-08T09:16:49;23.60;;;8.10;;
3068;SDS011;1545;51.728;8.796;2023-08-08T09:19:19;14.80;;;6.90;;
3068;SDS011;1545;51.728;8.796;2023-08-08T09:21:46;18.07;;;8.13;;
3068;SDS011;1545;51.728;8.796;2023-08-08T09:24:12;11.73;;;6.80;;
3068;SDS011;1545;51.728;8.796;2023-08-08T09:26:42;15.23;;;8.13;;
3068;SDS011;1545;51.728;8.796;2023-08-08T09:29:09;17.10;;;8.27;;
3068;SDS011;1545;51.728;8.796;2023-08-08T09:31:36;16.13;;;7.30;;
3068;SDS011;1545;51.728;8.796;2023-08-08T09:34:02;13.93;;;7.30;;
3068;SDS011;1545;51.728;8.796;2023-08-08T09:36:29;15.00;;;7.00;;
3068;SDS011;1545;51.728;8.796;2023-08-08T09:38:55;14.43;;;7.53;;
3068;SDS011;1545;51.728;8.796;2023-08-08T09:41:24;10.97;;;6.40;;
3068;SDS011;1545;51.728;8.796;2023-08-08T09:43:51;16.03;;;6.63;;
3068;SDS011;1545;51.728;8.796;2023-08-08T09:46:20;13.60;;;6.67;;
3068;SDS011;1545;51.728;8.796;2023-08-08T09:48:47;17.67;;;8.10;;
3068;SDS011;1545;51.728;8.796;2023-08-08T09:51:12;16.37;;;7.00;;
3068;SDS011;1545;51.728;8.796;2023-08-08T09:53:38;17.07;;;7.57;;
3068;SDS011;1545;51.728;8.796;2023-08-08T09:56:05;18.23;;;7.43;;
3068;SDS011;1545;51.728;8.796;2023-08-08T09:58:31;13.93;;;7.77;;
3068;SDS011;1545;51.728;8.796;2023-08-08T10:00:57;15.73;;;7.10;;
3068;SDS011;1545;51.728;8.796;2023-08-08T10:03:24;14.33;;;6.43;;
3068;SDS011;1545;51.728;8.796;2023-08-08T10:05:51;16.80;;;6.43;;
3068;SDS011;1545;51.728;8.796;2023-08-08T10:08:17;13.93;;;5.93;;
3068;SDS011;1545;51.728;8.796;2023-08-08T10:10:44;14.47;;;6.57;;
3068;SDS011;1545;51.728;8.796;2023-08-08T10:13:19;11.47;;;5.83;;
3068;SDS011;1545;51.728;8.796;2023-08-08T10:15:46;14.17;;;6.00;;
3068;SDS011;1545;51.728;8.796;2023-08-08T10:18:12;12.83;;;8.13;;
3068;SDS011;1545;51.728;8.796;2023-08-08T10:20:38;11.23;;;6.40;;
3068;SDS011;1545;51.728;8.796;2023-08-08T10:23:06;13.80;;;6.67;;
3068;SDS011;1545;51.728;8.796;2023-08-08T10:25:32;12.17;;;6.50;;
3068;SDS011;1545;51.728;8.796;2023-08-08T10:28:06;16.00;;;7.20;;
3068;SDS011;1545;51.728;8.796;2023-08-08T10:30:48;16.67;;;7.20;;
3068;SDS011;1545;51.728;8.796;2023-08-08T10:33:28;19.33;;;7.37;;
3068;SDS011;1545;51.728;8.796;2023-08-08T10:36:05;12.47;;;7.60;;
3068;SDS011;1545;51.728;8.796;2023-08-08T10:38:44;12.67;;;7.87;;
3068;SDS011;1545;51.728;8.796;2023-08-08T10:41:15;13.87;;;7.90;;
3068;SDS011;1545;51.728;8.796;2023-08-08T10:43:52;18.07;;;7.23;;
3068;SDS011;1545;51.728;8.796;2023-08-08T10:46:26;12.80;;;8.00;;
3068;SDS011;1545;51.728;8.796;2023-08-08T10:48:56;14.40;;;7.70;;
3068;SDS011;1545;51.728;8.796;2023-08-08T10:51:31;18.13;;;7.80;;
3068;SDS011;1545;51.728;8.796;2023-08-08T10:54:05;13.50;;;7.20;;
3068;SDS011;1545;51.728;8.796;2023-08-08T10:56:31;14.37;;;7.93;;
3068;SDS011;1545;51.728;8.796;2023-08-08T10:58:59;11.80;;;6.90;;
3068;SDS011;1545;51.728;8.796;2023-08-08T11:01:25;13.53;;;6.83;;
3068;SDS011;1545;51.728;8.796;2023-08-08T11:03:50;15.93;;;7.77;;
3068;SDS011;1545;51.728;8.796;2023-08-08T11:06:17;12.97;;;7.13;;
3068;SDS011;1545;51.728;8.796;2023-08-08T11:08:43;14.80;;;7.63;;
3068;SDS011;1545;51.728;8.796;2023-08-08T11:11:09;17.67;;;7.50;;
3068;SDS011;1545;51.728;8.796;2023-08-08T11:13:35;13.60;;;7.07;;
3068;SDS011;1545;51.728;8.796;2023-08-08T11:16:00;19.07;;;6.63;;
3068;SDS011;1545;51.728;8.796;2023-08-08T11:18:29;12.10;;;7.30;;
3068;SDS011;1545;51.728;8.796;2023-08-08T11:20:54;14.27;;;7.17;;
3068;SDS011;1545;51.728;8.796;2023-08-08T11:23:20;17.70;;;7.07;;
3068;SDS011;1545;51.728;8.796;2023-08-08T11:25:46;10.77;;;5.53;;
3068;SDS011;1545;51.728;8.796;2023-08-08T11:28:12;20.47;;;5.80;;
3068;SDS011;1545;51.728;8.796;2023-08-08T11:30:42;15.83;;;5.70;;
3068;SDS011;1545;51.728;8.796;2023-08-08T11:33:12;10.37;;;5.40;;
3068;SDS011;1545;51.728;8.796;2023-08-08T11:35:42;11.83;;;5.33;;
3068;SDS011;1545;51.728;8.796;2023-08-08T11:38:11;11.37;;;5.43;;
3068;SDS011;1545;51.728;8.796;2023-08-08T11:40:38;12.03;;;5.10;;
3068;SDS011;1545;51.728;8.796;2023-08-08T11:43:04;11.13;;;4.93;;
3068;SDS011;1545;51.728;8.796;2023-08-08T11:45:31;14.57;;;4.87;;
3068;SDS011;1545;51.728;8.796;2023-08-08T11:47:57;11.03;;;5.10;;
3068;SDS011;1545;51.728;8.796;2023-08-08T11:50:23;11.03;;;4.90;;
3068;SDS011;1545;51.728;8.796;2023-08-08T11:52:51;7.40;;;4.80;;
3068;SDS011;1545;51.728;8.796;2023-08-08T11:55:18;13.43;;;4.80;;
3068;SDS011;1545;51.728;8.796;2023-08-08T11:57:47;11.97;;;4.37;;
3068;SDS011;1545;51.728;8.796;2023-08-08T12:00:13;12.63;;;4.63;;
3068;SDS011;1545;51.728;8.796;2023-08-08T12:02:40;10.30;;;4.17;;
3068;SDS011;1545;51.728;8.796;2023-08-08T12:05:10;10.67;;;4.70;;
3068;SDS011;1545;51.728;8.796;2023-08-08T12:07:37;13.57;;;4.37;;
3068;SDS011;1545;51.728;8.796;2023-08-08T12:10:13;10.30;;;4.60;;
3068;SDS011;1545;51.728;8.796;2023-08-08T12:12:42;13.63;;;4.27;;
3068;SDS011;1545;51.728;8.796;2023-08-08T12:15:09;12.70;;;4.20;;
3068;SDS011;1545;51.728;8.796;2023-08-08T12:17:38;26.93;;;4.70;;
3068;SDS011;1545;51.728;8.796;2023-08-08T12:20:05;9.93;;;4.40;;
3068;SDS011;1545;51.728;8.796;2023-08-08T12:22:34;15.80;;;4.80;;
3068;SDS011;1545;51.728;8.796;2023-08-08T12:25:00;8.57;;;4.40;;
3068;SDS011;1545;51.728;8.796;2023-08-08T12:27:26;10.57;;;4.53;;
3068;SDS011;1545;51.728;8.796;2023-08-08T12:29:52;7.57;;;4.07;;
3068;SDS011;1545;51.728;8.796;2023-08-08T12:32:21;12.07;;;4.50;;
3068;SDS011;1545;51.728;8.796;2023-08-08T12:34:50;10.07;;;5.00;;
3068;SDS011;1545;51.728;8.796;2023-08-08T12:37:16;13.53;;;4.77;;
3068;SDS011;1545;51.728;8.796;2023-08-08T12:39:41;9.20;;;4.80;;
3068;SDS011;1545;51.728;8.796;2023-08-08T12:42:07;8.63;;;4.80;;
3068;SDS011;1545;51.728;8.796;2023-08-08T12:44:33;11.40;;;5.03;;
3068;SDS011;1545;51.728;8.796;2023-08-08T12:46:58;16.20;;;5.10;;
3068;SDS011;1545;51.728;8.796;2023-08-08T12:49:24;9.27;;;4.70;;
3068;SDS011;1545;51.728;8.796;2023-08-08T12:51:50;11.20;;;5.17;;
3068;SDS011;1545;51.728;8.796;2023-08-08T12:54:16;12.83;;;5.50;;
3068;SDS011;1545;51.728;8.796;2023-08-08T12:56:41;10.00;;;4.77;;
3068;SDS011;1545;51.728;8.796;2023-08-08T12:59:08;9.50;;;4.63;;
3068;SDS011;1545;51.728;8.796;2023-08-08T13:01:34;12.17;;;5.10;;
3068;SDS011;1545;51.728;8.796;2023-08-08T13:03:59;12.37;;;4.90;;
3068;SDS011;1545;51.728;8.796;2023-08-08T13:06:25;14.73;;;4.60;;
3068;SDS011;1545;51.728;8.796;2023-08-08T13:08:50;11.70;;;4.47;;
3068;SDS011;1545;51.728;8.796;2023-08-08T13:11:16;10.50;;;4.47;;
3068;SDS011;1545;51.728;8.796;2023-08-08T13:13:41;13.67;;;4.20;;
3068;SDS011;1545;51.728;8.796;2023-08-08T13:16:07;11.23;;;3.80;;
3068;SDS011;1545;51.728;8.796;2023-08-08T13:18:32;7.93;;;4.20;;
3068;SDS011;1545;51.728;8.796;2023-08-08T13:20:58;6.57;;;3.70;;
3068;SDS011;1545;51.728;8.796;2023-08-08T13:23:23;11.33;;;4.67;;
3068;SDS011;1545;51.728;8.796;2023-08-08T13:25:50;9.23;;;4.40;;
3068;SDS011;1545;51.728;8.796;2023-08-08T13:28:15;9.93;;;4.67;;
3068;SDS011;1545;51.728;8.796;2023-08-08T13:30:41;14.37;;;4.63;;
3068;SDS011;1545;51.728;8.796;2023-08-08T13:33:08;13.90;;;4.60;;
3068;SDS011;1545;51.728;8.796;2023-08-08T13:35:33;19.17;;;8.03;;
3068;SDS011;1545;51.728;8.796;2023-08-08T13:37:59;13.73;;;5.23;;
3068;SDS011;1545;51.728;8.796;2023-08-08T13:40:25;11.00;;;5.57;;
3068;SDS011;1545;51.728;8.796;2023-08-08T13:42:51;10.03;;;4.10;;
3068;SDS011;1545;51.728;8.796;2023-08-08T13:45:19;9.17;;;4.17;;
3068;SDS011;1545;51.728;8.796;2023-08-08T13:47:45;11.17;;;3.97;;
3068;SDS011;1545;51.728;8.796;2023-08-08T13:50:12;11.93;;;3.80;;
3068;SDS011;1545;51.728;8.796;2023-08-08T13:52:39;6.70;;;4.07;;
3068;SDS011;1545;51.728;8.796;2023-08-08T13:55:06;10.00;;;4.70;;
3068;SDS011;1545;51.728;8.796;2023-08-08T13:57:32;10.60;;;4.07;;
3068;SDS011;1545;51.728;8.796;2023-08-08T13:59:57;8.47;;;3.93;;
3068;SDS011;1545;51.728;8.796;2023-08-08T14:02:23;9.77;;;3.70;;
3068;SDS011;1545;51.728;8.796;2023-08-08T14:04:48;13.33;;;5.10;;
3068;SDS011;1545;51.728;8.796;2023-08-08T14:07:14;9.83;;;3.93;;
3068;SDS011;1545;51.728;8.796;2023-08-08T14:09:40;8.60;;;4.53;;
3068;SDS011;1545;51.728;8.796;2023-08-08T14:12:05;12.60;;;4.00;;
3068;SDS011;1545;51.728;8.796;2023-08-08T14:14:31;13.20;;;4.23;;
3068;SDS011;1545;51.728;8.796;2023-08-08T14:16:57;10.83;;;4.23;;
3068;SDS011;1545;51.728;8.796;2023-08-08T14:19:23;10.80;;;4.20;;
3068;SDS011;1545;51.728;8.796;2023-08-08T14:21:49;11.03;;;4.50;;
3068;SDS011;1545;51.728;8.796;2023-08-08T14:24:14;13.83;;;4.47;;
3068;SDS011;1545;51.728;8.796;2023-08-08T14:26:40;10.27;;;4.37;;
3068;SDS011;1545;51.728;8.796;2023-08-08T14:29:06;11.47;;;5.10;;
3068;SDS011;1545;51.728;8.796;2023-08-08T14:31:31;9.47;;;4.90;;
3068;SDS011;1545;51.728;8.796;2023-08-08T14:33:57;10.87;;;4.63;;
3068;SDS011;1545;51.728;8.796;2023-08-08T14:36:22;11.50;;;5.00;;
3068;SDS011;1545;51.728;8.796;2023-08-08T14:38:48;14.47;;;4.70;;
3068;SDS011;1545;51.728;8.796;2023-08-08T14:41:13;6.93;;;4.50;;
3068;SDS011;1545;51.728;8.796;2023-08-08T14:43:39;7.80;;;4.63;;
3068;SDS011;1545;51.728;8.796;2023-08-08T14:46:05;8.83;;;4.60;;
3068;SDS011;1545;51.728;8.796;2023-08-08T14:48:30;14.67;;;4.40;;
3068;SDS011;1545;51.728;8.796;2023-08-08T14:50:56;6.43;;;4.33;;
3068;SDS011;1545;51.728;8.796;2023-08-08T14:53:22;16.83;;;4.53;;
3068;SDS011;1545;51.728;8.796;2023-08-08T14:55:47;10.97;;;4.27;;
3068;SDS011;1545;51.728;8.796;2023-08-08T14:58:13;6.73;;;4.10;;